createdAt,value
2018-07-24T00:02:52.092Z,59.30
2018-07-24T00:06:55.422Z,60.60
2018-07-24T00:10:58.882Z,61.30
2018-07-24T00:15:02.250Z,60.20
2018-07-24T00:19:05.622Z,58.90
2018-07-24T00:23:08.930Z,61.80
2018-07-24T00:27:12.895Z,60.10
2018-07-24T00:31:16.328Z,60.40
2018-07-24T00:35:19.659Z,61.90
2018-07-24T00:39:23.008Z,60.00
2018-07-24T00:43:26.331Z,59.70
2018-07-24T00:47:29.769Z,59.80
2018-07-24T00:51:33.104Z,60.60
2018-07-24T00:55:36.427Z,61.10
2018-07-24T00:59:39.788Z,59.60
2018-07-24T01:07:46.402Z,60.80
2018-07-24T01:11:49.722Z,60.90
2018-07-24T01:15:53.068Z,61.10
2018-07-24T01:19:56.418Z,59.60
2018-07-24T01:23:59.802Z,61.00
2018-07-24T01:32:06.317Z,64.30
2018-07-24T01:36:09.682Z,61.90
2018-07-24T01:40:13.032Z,62.20
2018-07-24T01:44:16.343Z,60.50
2018-07-24T01:48:19.671Z,61.30
2018-07-24T01:52:23.013Z,61.00
2018-07-24T01:56:26.336Z,62.90
2018-07-24T02:00:29.666Z,61.00
2018-07-24T02:04:32.968Z,61.30
2018-07-24T02:08:36.319Z,61.50
2018-07-24T02:12:39.775Z,61.60
2018-07-24T02:16:43.103Z,61.50
2018-07-24T02:20:46.468Z,62.20
2018-07-24T02:24:49.820Z,62.60
2018-07-24T02:28:53.164Z,62.60
2018-07-24T02:32:56.508Z,62.20
2018-07-24T02:36:59.835Z,63.20
2018-07-24T02:41:03.183Z,62.00
2018-07-24T02:45:07.358Z,63.20
2018-07-24T02:49:10.779Z,62.10
2018-07-24T02:53:14.131Z,62.00
2018-07-24T02:57:17.459Z,61.20
2018-07-24T03:01:20.797Z,62.30
2018-07-24T03:05:26.234Z,61.20
2018-07-24T03:09:29.564Z,63.40
2018-07-24T03:13:33.788Z,62.40
2018-07-24T03:17:38.559Z,63.40
2018-07-24T03:21:42.503Z,63.20
2018-07-24T03:25:45.847Z,63.40
2018-07-24T03:29:49.164Z,66.80
2018-07-24T03:33:52.509Z,62.70
2018-07-24T03:37:55.860Z,63.80
2018-07-24T03:41:59.205Z,63.40
2018-07-24T03:46:02.559Z,63.30
2018-07-24T03:50:05.900Z,62.10
2018-07-24T03:54:09.238Z,62.50
2018-07-24T03:58:12.641Z,63.60
2018-07-24T04:02:16.034Z,62.20
2018-07-24T04:06:19.359Z,62.20
2018-07-24T04:10:23.134Z,63.20
2018-07-24T04:14:26.464Z,63.90
2018-07-24T04:18:34.044Z,63.10
2018-07-24T04:22:37.399Z,66.10
2018-07-24T04:26:40.724Z,65.50
2018-07-24T04:30:44.090Z,63.80
2018-07-24T04:34:48.372Z,63.10
2018-07-24T04:38:51.696Z,63.40
2018-07-24T04:42:55.052Z,63.30
2018-07-24T04:46:58.587Z,63.10
2018-07-24T04:51:01.977Z,64.70
2018-07-24T04:55:05.545Z,63.80
2018-07-24T04:59:09.156Z,65.10
2018-07-24T05:03:12.581Z,64.90
2018-07-24T05:07:15.922Z,63.90
2018-07-24T05:11:20.173Z,64.50
2018-07-24T05:15:23.536Z,62.80
2018-07-24T05:19:26.895Z,65.30
2018-07-24T05:23:30.297Z,62.70
2018-07-24T05:27:33.603Z,63.20
2018-07-24T05:31:36.979Z,63.70
2018-07-24T05:35:40.364Z,63.70
2018-07-24T05:39:43.725Z,63.40
2018-07-24T05:43:47.083Z,63.40
2018-07-24T05:47:50.492Z,62.80
2018-07-24T05:51:53.821Z,63.00
2018-07-24T05:56:01.403Z,62.80
2018-07-24T06:00:05.384Z,62.60
2018-07-24T06:04:08.707Z,62.50
2018-07-24T06:08:12.027Z,62.00
2018-07-24T06:12:15.384Z,61.80
2018-07-24T06:16:18.739Z,64.40
2018-07-24T06:20:22.635Z,63.60
2018-07-24T06:28:29.096Z,64.70
2018-07-24T06:32:32.484Z,63.40
2018-07-24T06:36:35.824Z,63.70
2018-07-24T06:40:39.216Z,61.80
2018-07-24T06:44:42.648Z,69.80
2018-07-24T06:48:46.062Z,62.50
2018-07-24T06:52:49.496Z,61.50
2018-07-24T06:56:52.938Z,61.40
2018-07-24T07:00:56.484Z,61.50
2018-07-24T07:04:59.887Z,62.00
2018-07-24T07:09:05.927Z,61.00
2018-07-24T07:13:09.283Z,60.70
2018-07-24T07:17:12.664Z,61.50
2018-07-24T07:21:16.067Z,61.10
2018-07-24T07:25:19.601Z,63.80
2018-07-24T07:29:22.993Z,61.10
2018-07-24T07:33:26.403Z,61.10
2018-07-24T07:37:29.804Z,60.70
2018-07-24T07:41:57.456Z,60.50
2018-07-24T07:50:04.247Z,60.50
2018-07-24T07:54:08.345Z,61.70
2018-07-24T07:58:11.663Z,59.90
2018-07-24T08:02:14.984Z,61.10
2018-07-24T08:06:18.472Z,60.60
2018-07-24T08:10:22.143Z,61.10
2018-07-24T08:14:25.558Z,60.60
2018-07-24T08:18:28.927Z,60.20
2018-07-24T08:22:32.451Z,60.10
2018-07-24T08:26:36.015Z,60.20
2018-07-24T08:30:39.503Z,60.20
2018-07-24T08:34:43.071Z,60.10
2018-07-24T08:38:46.633Z,60.20
2018-07-24T08:46:53.393Z,59.70
2018-07-24T08:50:57.373Z,60.20
2018-07-24T08:55:00.979Z,59.70
2018-07-24T08:59:07.191Z,60.00
2018-07-24T09:03:10.644Z,60.20
2018-07-24T09:07:14.001Z,60.20
2018-07-24T09:11:21.712Z,59.90
2018-07-24T09:15:25.120Z,60.20
2018-07-24T09:19:28.609Z,60.30
2018-07-24T09:28:08.141Z,59.60
2018-07-24T09:32:18.068Z,56.80
2018-07-24T09:40:53.136Z,60.20
2018-07-24T09:50:46.548Z,59.60
2018-07-24T09:54:58.112Z,59.30
2018-07-24T10:03:09.554Z,60.50
2018-07-24T10:07:12.890Z,60.00
2018-07-24T10:11:16.359Z,60.00
2018-07-24T10:15:19.696Z,58.70
2018-07-24T10:19:23.035Z,55.50
2018-07-24T10:23:26.386Z,57.30
2018-07-24T10:27:29.759Z,57.70
2018-07-24T10:31:33.223Z,58.90
2018-07-24T10:35:37.508Z,59.20
2018-07-24T10:39:41.496Z,59.10
2018-07-24T10:43:44.880Z,59.30
2018-07-24T10:47:48.267Z,58.30
2018-07-24T10:51:51.659Z,52.90
2018-07-24T10:55:55.048Z,55.50
2018-07-24T10:59:58.391Z,55.80
2018-07-24T11:04:01.806Z,52.40
2018-07-24T11:08:05.336Z,57.00
2018-07-24T11:16:11.869Z,57.50
2018-07-24T11:20:15.376Z,54.70
2018-07-24T11:24:18.842Z,53.80
2018-07-24T11:32:26.578Z,56.30
2018-07-24T11:36:30.296Z,50.70
2018-07-24T11:40:33.660Z,56.70
2018-07-24T11:44:37.040Z,57.30
2018-07-24T11:48:40.478Z,49.90
2018-07-24T11:52:43.947Z,57.10
2018-07-24T11:56:47.279Z,56.00
2018-07-24T12:01:13.687Z,56.20
2018-07-24T12:05:43.286Z,56.80
2018-07-24T12:09:49.341Z,51.40
2018-07-24T12:13:52.836Z,55.60
2018-07-24T12:17:56.183Z,55.50
2018-07-24T12:21:59.545Z,54.00
2018-07-24T12:26:02.861Z,53.90
2018-07-24T12:30:10.011Z,51.00
2018-07-24T12:34:13.339Z,52.40
2018-07-24T12:38:16.668Z,54.90
2018-07-24T12:42:20.025Z,53.50
2018-07-24T12:46:23.384Z,55.60
2018-07-24T12:54:29.919Z,55.70
2018-07-24T12:58:33.242Z,51.00
2018-07-24T13:02:36.576Z,48.40
2018-07-24T13:06:39.950Z,50.20
2018-07-24T13:10:43.401Z,54.20
2018-07-24T13:14:46.744Z,52.60
2018-07-24T13:18:50.088Z,50.70
2018-07-24T13:22:53.407Z,51.00
2018-07-24T13:26:56.749Z,49.50
2018-07-24T13:31:00.068Z,52.40
2018-07-24T13:35:04.199Z,50.40
2018-07-24T13:39:09.893Z,51.00
2018-07-24T13:43:13.242Z,47.60
2018-07-24T13:47:16.572Z,51.40
2018-07-24T13:51:19.956Z,50.70
2018-07-24T13:55:23.300Z,49.90
2018-07-24T13:59:26.668Z,50.20
2018-07-24T14:03:30.015Z,51.40
2018-07-24T14:07:33.349Z,51.10
2018-07-24T14:11:36.828Z,52.70
2018-07-24T14:15:40.160Z,49.50
2018-07-24T14:19:43.526Z,49.70
2018-07-24T14:23:46.890Z,48.90
2018-07-24T14:27:50.228Z,49.50
2018-07-24T14:31:53.548Z,50.90
2018-07-24T14:35:56.896Z,52.30
2018-07-24T14:40:00.236Z,44.40
2018-07-24T14:44:03.580Z,50.50
2018-07-24T14:48:06.972Z,43.90
2018-07-24T14:52:11.111Z,48.60
2018-07-24T14:56:14.418Z,50.50
2018-07-24T15:00:17.751Z,48.30
2018-07-24T15:04:21.092Z,41.10
2018-07-24T15:08:24.430Z,50.70
2018-07-24T15:12:27.742Z,49.30
2018-07-24T15:16:31.097Z,49.20
2018-07-24T15:20:34.452Z,39.50
2018-07-24T15:24:37.799Z,49.40
2018-07-24T15:28:41.165Z,47.70
2018-07-24T15:32:44.486Z,49.80
2018-07-24T15:36:47.815Z,45.70
2018-07-24T15:40:51.150Z,46.30
2018-07-24T15:44:54.504Z,50.30
2018-07-24T15:48:57.847Z,50.60
2018-07-24T15:53:01.170Z,46.20
2018-07-24T15:57:04.509Z,42.40
2018-07-24T16:01:07.835Z,49.70
2018-07-24T16:05:11.209Z,49.30
2018-07-24T16:09:14.550Z,49.60
2018-07-24T16:13:18.063Z,45.90
2018-07-24T16:17:28.126Z,42.30
2018-07-24T16:21:31.685Z,45.00
2018-07-24T16:25:35.104Z,44.60
2018-07-24T16:29:38.653Z,44.10
2018-07-24T16:33:42.016Z,40.30
2018-07-24T16:37:45.352Z,42.00
2018-07-24T16:41:48.722Z,44.30
2018-07-24T16:45:52.051Z,40.60
2018-07-24T16:49:55.385Z,39.40
2018-07-24T16:53:58.765Z,40.30
2018-07-24T16:58:02.182Z,39.40
2018-07-24T17:02:05.499Z,41.70
2018-07-24T17:06:08.866Z,40.20
2018-07-24T17:10:12.224Z,41.50
2018-07-24T17:14:15.600Z,40.70
2018-07-24T17:18:18.955Z,40.90
2018-07-24T17:22:22.304Z,41.50
2018-07-24T17:26:25.899Z,42.90
2018-07-24T17:30:29.152Z,40.10
2018-07-24T17:34:32.514Z,40.80
2018-07-24T17:38:35.896Z,44.30
2018-07-24T17:42:39.223Z,43.40
2018-07-24T17:46:42.553Z,42.40
2018-07-24T17:50:46.085Z,41.80
2018-07-24T17:55:19.381Z,43.60
2018-07-24T17:59:23.072Z,44.40
2018-07-24T18:03:26.410Z,45.00
2018-07-24T18:07:38.283Z,45.80
2018-07-24T18:11:47.073Z,45.10
2018-07-24T18:15:50.436Z,45.10
2018-07-24T18:19:53.804Z,45.60
2018-07-24T18:23:57.144Z,44.60
2018-07-24T18:28:00.467Z,45.10
2018-07-24T18:32:04.482Z,45.60
2018-07-24T18:36:07.855Z,46.40
2018-07-24T18:40:12.016Z,45.90
2018-07-24T18:44:15.385Z,46.80
2018-07-24T18:48:18.727Z,46.90
2018-07-24T18:52:22.067Z,46.30
2018-07-24T18:56:25.442Z,46.80
2018-07-24T19:00:28.789Z,47.30
2018-07-24T19:04:32.171Z,46.50
2018-07-24T19:08:35.561Z,46.90
2018-07-24T19:12:38.920Z,47.10
2018-07-24T19:16:42.278Z,47.20
2018-07-24T19:20:45.635Z,46.90
2018-07-24T19:24:49.046Z,47.80
2018-07-24T19:28:52.552Z,47.80
2018-07-24T19:32:55.888Z,48.40
2018-07-24T19:36:59.252Z,48.10
2018-07-24T19:41:02.621Z,48.40
2018-07-24T19:45:06.220Z,48.70
2018-07-24T19:49:09.572Z,48.60
2018-07-24T19:53:13.944Z,49.10
2018-07-24T19:57:17.288Z,49.50
2018-07-24T20:01:20.740Z,49.10
2018-07-24T20:05:24.074Z,49.20
2018-07-24T20:09:27.451Z,49.30
2018-07-24T20:13:30.799Z,49.60
2018-07-24T20:17:34.147Z,49.60
2018-07-24T20:21:39.181Z,49.60
2018-07-24T20:25:42.547Z,49.60
2018-07-24T20:29:45.987Z,50.00
2018-07-24T20:33:49.355Z,50.20
2018-07-24T20:41:55.909Z,51.00
2018-07-24T20:45:59.349Z,51.10
2018-07-24T20:50:02.747Z,51.40
2018-07-24T20:54:06.156Z,51.70
2018-07-24T20:58:09.535Z,51.40
2018-07-24T21:02:12.927Z,52.20
2018-07-24T21:06:16.313Z,51.60
2018-07-24T21:10:20.285Z,52.60
2018-07-24T21:14:23.666Z,52.40
2018-07-24T21:18:27.056Z,53.30
2018-07-24T21:22:30.456Z,53.90
2018-07-24T21:26:33.865Z,54.60
2018-07-24T21:30:37.303Z,53.70
2018-07-24T21:34:40.760Z,53.60
2018-07-24T21:38:44.431Z,53.30
2018-07-24T21:42:47.831Z,53.70
2018-07-24T21:46:51.196Z,53.70
2018-07-24T21:50:54.660Z,53.50
2018-07-24T21:54:58.249Z,53.90
2018-07-24T21:59:01.647Z,54.20
2018-07-24T22:03:07.021Z,54.30
2018-07-24T22:07:10.404Z,55.10
2018-07-24T22:11:14.052Z,53.90
2018-07-24T22:19:35.356Z,53.60
2018-07-24T22:23:45.428Z,54.70
2018-07-24T22:27:48.802Z,54.40
2018-07-24T22:31:52.383Z,53.80
2018-07-24T22:35:55.758Z,53.60
2018-07-24T22:39:59.122Z,54.40
2018-07-24T22:44:04.871Z,54.90
2018-07-24T22:48:08.273Z,55.60
2018-07-24T22:52:11.653Z,55.00
2018-07-24T23:00:18.159Z,55.00
2018-07-24T23:04:21.585Z,56.00
2018-07-24T23:08:24.968Z,55.80
2018-07-24T23:12:28.328Z,55.80
2018-07-24T23:16:31.717Z,55.60
2018-07-24T23:20:35.157Z,54.80
2018-07-24T23:24:38.521Z,55.30
2018-07-24T23:28:41.899Z,57.20
2018-07-24T23:32:45.283Z,56.40
2018-07-24T23:36:48.699Z,56.40
2018-07-24T23:40:52.056Z,55.80
2018-07-24T23:44:55.416Z,56.50
2018-07-24T23:48:58.757Z,56.60
2018-07-24T23:53:02.074Z,57.10
2018-07-24T23:57:05.442Z,56.60
